createdAt,value
2022-10-17T00:03:35.821Z,12.5
2022-10-17T00:13:38.171Z,12.4
2022-10-17T00:23:40.793Z,12.3
2022-10-17T00:33:43.247Z,12.5
2022-10-17T00:43:45.561Z,12.7
2022-10-17T00:53:47.964Z,12.9
2022-10-17T01:03:50.130Z,12.7
2022-10-17T01:13:52.309Z,12.8
2022-10-17T01:23:54.481Z,13.1
2022-10-17T01:33:57.119Z,13.1
2022-10-17T01:43:59.298Z,13.1
2022-10-17T01:54:01.863Z,13.1
2022-10-17T02:04:03.968Z,13
2022-10-17T02:14:06.041Z,13
2022-10-17T02:24:08.204Z,13
2022-10-17T02:34:10.352Z,13
2022-10-17T02:54:14.511Z,12.9
2022-10-17T03:04:16.978Z,12.9
2022-10-17T03:14:19.414Z,12.9
2022-10-17T03:24:21.587Z,12.7
2022-10-17T03:44:25.615Z,12.3
2022-10-17T03:54:28.114Z,12.2
2022-10-17T04:04:30.511Z,12.2
2022-10-17T04:14:32.454Z,12.2
2022-10-17T04:24:34.577Z,12.2
2022-10-17T04:34:36.948Z,12.3
2022-10-17T04:44:39.301Z,12.4
2022-10-17T04:54:41.637Z,12.4
2022-10-17T05:04:43.561Z,12.4
2022-10-17T05:14:45.282Z,12.3
2022-10-17T05:24:47.875Z,12.3
2022-10-17T05:34:49.733Z,12.5
2022-10-17T05:44:52.114Z,12.5
2022-10-17T06:35:03.014Z,12.9
2022-10-17T07:15:11.107Z,14.3
2022-10-17T07:25:13.088Z,14.9
2022-10-17T08:05:21.484Z,18
2022-10-17T08:15:24.868Z,18.2
2022-10-17T08:35:27.345Z,19.2
2022-10-17T10:35:53.875Z,20.8
2022-10-17T12:06:22.911Z,20.5
2022-10-17T12:26:25.788Z,20.8
2022-10-17T13:06:34.411Z,20
2022-10-17T13:16:36.119Z,19.8
2022-10-17T13:26:38.304Z,19.5
2022-10-17T13:46:43.069Z,19.5
2022-10-17T13:56:45.251Z,19.3
2022-10-17T14:06:49.383Z,19.1
2022-10-17T14:16:49.445Z,19
2022-10-17T14:26:51.503Z,19
2022-10-17T14:46:56.268Z,19.3
2022-10-17T15:17:03.584Z,19.1
2022-10-17T15:27:05.442Z,19.2
2022-10-17T15:37:07.748Z,19.1
2022-10-17T15:57:12.977Z,18.8
2022-10-17T16:17:17.299Z,18.5
2022-10-17T16:27:19.390Z,18.2
2022-10-17T16:37:21.593Z,18
2022-10-17T16:47:23.905Z,17.8
2022-10-17T16:57:26.036Z,17.6
2022-10-17T17:07:28.324Z,17.5
2022-10-17T17:17:44.647Z,17.3
2022-10-17T17:27:33.085Z,17.1
2022-10-17T17:37:34.714Z,17.1
2022-10-17T18:27:45.393Z,16.7
2022-10-17T18:37:47.888Z,16.6
2022-10-17T18:47:49.685Z,16.5
2022-10-17T19:07:54.153Z,16.3
2022-10-17T19:17:56.290Z,16.3
2022-10-17T19:38:00.300Z,16.1
2022-10-17T19:48:02.442Z,16
2022-10-17T19:58:04.738Z,16
2022-10-17T20:18:09.234Z,15.8
2022-10-17T20:28:11.676Z,15.8
2022-10-17T20:58:18.210Z,15.7
2022-10-17T21:08:20.098Z,15.7
2022-10-17T21:18:22.601Z,15.6
2022-10-17T21:28:24.825Z,15.6
2022-10-17T21:38:27.259Z,15.5
2022-10-17T21:58:31.873Z,15.3
2022-10-17T22:08:33.871Z,15.2
2022-10-17T22:18:35.690Z,15.1
2022-10-17T22:28:37.901Z,15
2022-10-17T22:38:40.290Z,15
2022-10-17T22:48:42.549Z,14.9
2022-10-17T22:58:45.087Z,14.8
2022-10-17T23:08:47.271Z,14.7
2022-10-17T23:18:49.542Z,14.7
2022-10-17T23:28:51.805Z,14.7
2022-10-17T23:38:55.014Z,14.7
2022-10-17T23:48:56.042Z,14.7
2022-10-17T23:58:57.805Z,14.7
